Sand Point, AK

12:20 PM AKDT on August 29, 2014 (GMT -0800)
Cold Bay | Change Station
CLOSE
Current Station
Airport
Location: Cold Bay,
Elevation: 102 ft
Nearby Weather Stations

Elev 102 ft 55.22 °N, 162.73 °W | Updated 27 minutes ago

Overcast
Overcast
57 °F
Feels Like 57 °F
N
5
Wind Variable Wind from SE

Today
High -- | Low -- °F
--% Chance of Precip.
Yesterday
High -- | Low -- °F
Precip. -- in
7:43 AM 9:42 PM
Waxing Crescent, 16% visible
Pressure 29.80 in
Visibility 10.0 miles
Clouds Few 1000 ft
Scattered Clouds 1400 ft
Overcast 6000 ft
Dew Point 51 °F
Humidity 81%
Rainfall 0.00 in
Snow Depth Not available.
UV 1 out of 12
Pollen Not available.
Air Quality Not available.
Flu Activity Not available.
METAR PACD 291953Z 13004KT 10SM FEW010 SCT014 OVC060 14/11 A2979 RMK AO2 SLP089 T01390106

More Conditions Fewer Conditions

Pressure 29.80 in
Visibility 10.0 miles
Clouds Few 1000 ft
Scattered Clouds 1400 ft
Overcast 6000 ft
Dew Point 51 °F
Humidity 81%
Rainfall 0.00 in
Snow Depth Not available.
UV 1 out of 12
Pollen Not available.
Air Quality Not available.
Flu Activity Not available.
METAR PACD 291953Z 13004KT 10SM FEW010 SCT014 OVC060 14/11 A2979 RMK AO2 SLP089 T01390106

More Conditions Fewer Conditions

10-Day Weather Forecast

Almanac

Astronomy

Aug. 29, 2014 Rise Set
Actual Time 7:43 AM AKDT 9:42 PM AKDT
Civil Twilight 7:04 AM AKDT 10:21 PM AKDT
Nautical Twilight 6:14 AM AKDT 11:10 PM AKDT
Astronomical Twilight 5:16 AM AKDT 12:07 AM AKDT
Moon 12:31 PM AKDT 10:56 PM AKDT
Length of Visible Light 15h 17m
Length of Day
13h 59m
Tomorrow will be 4m 24s shorter.
Waxing Crescent, 16% of the Moon is Illuminated
Today
Waxing Crescent
Sep 2
First Quarter
Sep 8
Full
Sep 15
Last Quarter
Sep 24
New

Today's Extremes

State Highs State Lows

Community

WunderPhotos

Upload Photos

1,748,337 photos uploaded!

WunderBlogs® & News

By Dr. Jeff Masters
Director of Meteorology, Weather Underground
By Kari Strenfel
Meteorologist, Weather Underground
By Christopher C. Burt
Weather Historian, Weather Underground
August 29, 2014
August 29, 2014
August 29, 2014

Nearby

Snow Depth

Station Depth Elevation
Mcneil Canyon 1 in 1320 ft
Nuka Glacier 53 in 1250 ft
MF Bradley River 2 in 2300 ft
Cooper Lake 5 in 1200 ft
Grouse Creek Divide 0 in 700 ft

Earthquake Activity

City Distance Mag. Time & Date
No recent earthquake activity has been reported nearby.
Minimum magnitude displayed is 2.5.

Coastal Water Temperatures

Place Temperature
No Stations Reporting

Nearby Weather Stations